sensor_id;sensor_type;location;lat;lon;timestamp;P1;durP1;ratioP1;P2;durP2;ratioP2
71800;SDS011;59647;55.838;37.292;2023-04-25T00:01:47;9.13;;;4.10;;
71800;SDS011;59647;55.838;37.292;2023-04-25T00:04:13;14.15;;;4.13;;
71800;SDS011;59647;55.838;37.292;2023-04-25T00:06:39;8.90;;;4.30;;
71800;SDS011;59647;55.838;37.292;2023-04-25T00:09:05;12.85;;;4.53;;
71800;SDS011;59647;55.838;37.292;2023-04-25T00:11:36;13.70;;;5.13;;
71800;SDS011;59647;55.838;37.292;2023-04-25T00:14:04;11.68;;;5.65;;
71800;SDS011;59647;55.838;37.292;2023-04-25T00:16:30;10.88;;;5.00;;
71800;SDS011;59647;55.838;37.292;2023-04-25T00:18:59;11.35;;;4.25;;
71800;SDS011;59647;55.838;37.292;2023-04-25T00:21:27;14.32;;;4.28;;
71800;SDS011;59647;55.838;37.292;2023-04-25T00:23:54;10.30;;;4.38;;
71800;SDS011;59647;55.838;37.292;2023-04-25T00:26:21;11.00;;;4.20;;
71800;SDS011;59647;55.838;37.292;2023-04-25T00:28:47;11.02;;;4.25;;
71800;SDS011;59647;55.838;37.292;2023-04-25T00:31:13;9.95;;;4.43;;
71800;SDS011;59647;55.838;37.292;2023-04-25T00:33:40;11.68;;;4.50;;
71800;SDS011;59647;55.838;37.292;2023-04-25T00:36:06;19.20;;;4.85;;
71800;SDS011;59647;55.838;37.292;2023-04-25T00:38:33;9.18;;;4.32;;
71800;SDS011;59647;55.838;37.292;2023-04-25T00:40:59;10.93;;;4.43;;
71800;SDS011;59647;55.838;37.292;2023-04-25T00:43:26;10.07;;;4.35;;
71800;SDS011;59647;55.838;37.292;2023-04-25T00:45:53;17.63;;;4.85;;
71800;SDS011;59647;55.838;37.292;2023-04-25T00:48:22;7.55;;;4.47;;
71800;SDS011;59647;55.838;37.292;2023-04-25T00:50:57;15.73;;;4.45;;
71800;SDS011;59647;55.838;37.292;2023-04-25T00:53:25;13.63;;;4.07;;
71800;SDS011;59647;55.838;37.292;2023-04-25T00:55:52;12.50;;;4.72;;
71800;SDS011;59647;55.838;37.292;2023-04-25T00:58:19;15.85;;;4.40;;
71800;SDS011;59647;55.838;37.292;2023-04-25T01:00:47;15.75;;;4.85;;
71800;SDS011;59647;55.838;37.292;2023-04-25T01:03:17;12.75;;;4.75;;
71800;SDS011;59647;55.838;37.292;2023-04-25T01:05:45;12.77;;;4.57;;
71800;SDS011;59647;55.838;37.292;2023-04-25T01:08:12;17.98;;;4.93;;
71800;SDS011;59647;55.838;37.292;2023-04-25T01:10:39;18.45;;;5.53;;
71800;SDS011;59647;55.838;37.292;2023-04-25T01:13:05;14.00;;;4.60;;
71800;SDS011;59647;55.838;37.292;2023-04-25T01:15:31;20.20;;;5.20;;
71800;SDS011;59647;55.838;37.292;2023-04-25T01:17:57;10.55;;;4.88;;
71800;SDS011;59647;55.838;37.292;2023-04-25T01:20:23;11.13;;;4.90;;
71800;SDS011;59647;55.838;37.292;2023-04-25T01:22:50;13.65;;;5.07;;
71800;SDS011;59647;55.838;37.292;2023-04-25T01:25:18;10.60;;;4.28;;
71800;SDS011;59647;55.838;37.292;2023-04-25T01:27:45;12.85;;;3.75;;
71800;SDS011;59647;55.838;37.292;2023-04-25T01:30:12;12.23;;;4.05;;
71800;SDS011;59647;55.838;37.292;2023-04-25T01:32:40;12.95;;;4.68;;
71800;SDS011;59647;55.838;37.292;2023-04-25T01:35:08;11.50;;;4.80;;
71800;SDS011;59647;55.838;37.292;2023-04-25T01:37:38;10.88;;;4.00;;
71800;SDS011;59647;55.838;37.292;2023-04-25T01:40:10;10.35;;;3.97;;
71800;SDS011;59647;55.838;37.292;2023-04-25T01:42:37;10.50;;;4.05;;
71800;SDS011;59647;55.838;37.292;2023-04-25T01:45:06;10.30;;;4.03;;
71800;SDS011;59647;55.838;37.292;2023-04-25T01:47:33;8.45;;;4.65;;
71800;SDS011;59647;55.838;37.292;2023-04-25T01:50:01;13.73;;;3.90;;
71800;SDS011;59647;55.838;37.292;2023-04-25T01:52:29;8.55;;;4.05;;
71800;SDS011;59647;55.838;37.292;2023-04-25T01:54:57;17.90;;;4.15;;
71800;SDS011;59647;55.838;37.292;2023-04-25T01:57:29;13.68;;;4.28;;
71800;SDS011;59647;55.838;37.292;2023-04-25T01:59:58;5.53;;;3.55;;
71800;SDS011;59647;55.838;37.292;2023-04-25T02:02:38;15.75;;;4.22;;
71800;SDS011;59647;55.838;37.292;2023-04-25T02:05:07;13.90;;;3.97;;
71800;SDS011;59647;55.838;37.292;2023-04-25T02:07:37;12.95;;;4.47;;
71800;SDS011;59647;55.838;37.292;2023-04-25T02:10:03;8.93;;;4.10;;
71800;SDS011;59647;55.838;37.292;2023-04-25T02:12:33;9.60;;;3.97;;
71800;SDS011;59647;55.838;37.292;2023-04-25T02:15:16;15.52;;;4.55;;
71800;SDS011;59647;55.838;37.292;2023-04-25T02:18:09;11.40;;;4.40;;
71800;SDS011;59647;55.838;37.292;2023-04-25T02:20:35;12.75;;;4.18;;
71800;SDS011;59647;55.838;37.292;2023-04-25T02:23:01;10.82;;;3.95;;
71800;SDS011;59647;55.838;37.292;2023-04-25T02:25:28;7.40;;;3.88;;
71800;SDS011;59647;55.838;37.292;2023-04-25T02:27:54;11.02;;;3.85;;
71800;SDS011;59647;55.838;37.292;2023-04-25T02:30:20;12.20;;;4.72;;
71800;SDS011;59647;55.838;37.292;2023-04-25T02:32:46;11.13;;;3.85;;
71800;SDS011;59647;55.838;37.292;2023-04-25T02:35:12;14.50;;;4.25;;
71800;SDS011;59647;55.838;37.292;2023-04-25T02:37:38;10.98;;;3.78;;
71800;SDS011;59647;55.838;37.292;2023-04-25T02:40:06;8.75;;;3.70;;
71800;SDS011;59647;55.838;37.292;2023-04-25T02:42:32;12.52;;;4.68;;
71800;SDS011;59647;55.838;37.292;2023-04-25T02:44:58;16.88;;;4.97;;
71800;SDS011;59647;55.838;37.292;2023-04-25T02:47:26;7.38;;;4.25;;
71800;SDS011;59647;55.838;37.292;2023-04-25T02:49:52;12.10;;;4.40;;
71800;SDS011;59647;55.838;37.292;2023-04-25T02:52:18;9.02;;;3.95;;
71800;SDS011;59647;55.838;37.292;2023-04-25T02:54:50;12.15;;;4.47;;
71800;SDS011;59647;55.838;37.292;2023-04-25T02:57:16;14.63;;;4.82;;
71800;SDS011;59647;55.838;37.292;2023-04-25T02:59:42;9.05;;;4.35;;
71800;SDS011;59647;55.838;37.292;2023-04-25T03:02:08;7.88;;;3.95;;
71800;SDS011;59647;55.838;37.292;2023-04-25T03:04:34;16.45;;;4.05;;
71800;SDS011;59647;55.838;37.292;2023-04-25T03:07:00;8.52;;;4.78;;
71800;SDS011;59647;55.838;37.292;2023-04-25T03:09:27;23.42;;;5.13;;
71800;SDS011;59647;55.838;37.292;2023-04-25T03:11:53;11.55;;;4.22;;
71800;SDS011;59647;55.838;37.292;2023-04-25T03:14:19;13.90;;;4.10;;
71800;SDS011;59647;55.838;37.292;2023-04-25T03:16:45;14.23;;;4.40;;
71800;SDS011;59647;55.838;37.292;2023-04-25T03:19:11;19.88;;;4.45;;
71800;SDS011;59647;55.838;37.292;2023-04-25T03:21:37;10.18;;;4.25;;
71800;SDS011;59647;55.838;37.292;2023-04-25T03:24:03;10.63;;;3.90;;
71800;SDS011;59647;55.838;37.292;2023-04-25T03:26:30;14.85;;;4.38;;
71800;SDS011;59647;55.838;37.292;2023-04-25T03:28:56;16.40;;;3.80;;
71800;SDS011;59647;55.838;37.292;2023-04-25T03:31:22;11.35;;;3.83;;
71800;SDS011;59647;55.838;37.292;2023-04-25T03:33:48;6.30;;;2.90;;
71800;SDS011;59647;55.838;37.292;2023-04-25T03:36:15;12.95;;;4.35;;
71800;SDS011;59647;55.838;37.292;2023-04-25T03:38:41;16.58;;;4.03;;
71800;SDS011;59647;55.838;37.292;2023-04-25T03:41:08;17.50;;;5.47;;
71800;SDS011;59647;55.838;37.292;2023-04-25T03:43:41;9.07;;;4.47;;
71800;SDS011;59647;55.838;37.292;2023-04-25T03:46:11;12.32;;;3.58;;
71800;SDS011;59647;55.838;37.292;2023-04-25T03:48:37;12.48;;;3.92;;
71800;SDS011;59647;55.838;37.292;2023-04-25T03:51:04;10.75;;;4.10;;
71800;SDS011;59647;55.838;37.292;2023-04-25T03:53:32;15.00;;;3.95;;
71800;SDS011;59647;55.838;37.292;2023-04-25T03:56:16;12.48;;;4.35;;
71800;SDS011;59647;55.838;37.292;2023-04-25T03:58:45;13.05;;;5.25;;
71800;SDS011;59647;55.838;37.292;2023-04-25T04:01:13;12.93;;;4.00;;
71800;SDS011;59647;55.838;37.292;2023-04-25T04:03:39;9.93;;;4.88;;
71800;SDS011;59647;55.838;37.292;2023-04-25T04:06:06;15.10;;;4.78;;
71800;SDS011;59647;55.838;37.292;2023-04-25T04:08:36;13.18;;;4.63;;
71800;SDS011;59647;55.838;37.292;2023-04-25T04:11:02;11.40;;;4.68;;
71800;SDS011;59647;55.838;37.292;2023-04-25T04:13:29;11.27;;;4.68;;
71800;SDS011;59647;55.838;37.292;2023-04-25T04:15:55;8.00;;;4.30;;
71800;SDS011;59647;55.838;37.292;2023-04-25T04:18:22;8.57;;;3.50;;
71800;SDS011;59647;55.838;37.292;2023-04-25T04:20:48;9.13;;;3.60;;
71800;SDS011;59647;55.838;37.292;2023-04-25T04:23:16;15.32;;;3.70;;
71800;SDS011;59647;55.838;37.292;2023-04-25T04:25:42;16.73;;;5.13;;
71800;SDS011;59647;55.838;37.292;2023-04-25T04:28:30;6.57;;;3.80;;
71800;SDS011;59647;55.838;37.292;2023-04-25T04:31:01;8.70;;;3.65;;
71800;SDS011;59647;55.838;37.292;2023-04-25T04:33:28;8.85;;;4.25;;
71800;SDS011;59647;55.838;37.292;2023-04-25T04:36:00;14.27;;;3.90;;
71800;SDS011;59647;55.838;37.292;2023-04-25T04:38:28;7.97;;;3.60;;
71800;SDS011;59647;55.838;37.292;2023-04-25T04:40:58;12.07;;;4.10;;
71800;SDS011;59647;55.838;37.292;2023-04-25T04:43:31;8.27;;;3.33;;
71800;SDS011;59647;55.838;37.292;2023-04-25T04:46:21;10.65;;;4.38;;
71800;SDS011;59647;55.838;37.292;2023-04-25T04:49:16;6.90;;;3.45;;
71800;SDS011;59647;55.838;37.292;2023-04-25T04:51:53;16.08;;;4.05;;
71800;SDS011;59647;55.838;37.292;2023-04-25T04:54:46;10.93;;;4.00;;
71800;SDS011;59647;55.838;37.292;2023-04-25T04:57:32;16.23;;;4.20;;
71800;SDS011;59647;55.838;37.292;2023-04-25T05:00:19;8.73;;;4.72;;
71800;SDS011;59647;55.838;37.292;2023-04-25T05:03:05;11.55;;;4.47;;
71800;SDS011;59647;55.838;37.292;2023-04-25T05:05:52;9.93;;;4.65;;
71800;SDS011;59647;55.838;37.292;2023-04-25T05:08:38;13.82;;;4.70;;
71800;SDS011;59647;55.838;37.292;2023-04-25T05:11:14;13.63;;;4.03;;
71800;SDS011;59647;55.838;37.292;2023-04-25T05:13:55;12.65;;;3.97;;
71800;SDS011;59647;55.838;37.292;2023-04-25T05:16:44;12.30;;;4.45;;
71800;SDS011;59647;55.838;37.292;2023-04-25T05:19:37;8.82;;;3.92;;
71800;SDS011;59647;55.838;37.292;2023-04-25T05:22:38;11.55;;;4.70;;
71800;SDS011;59647;55.838;37.292;2023-04-25T05:25:20;20.77;;;4.70;;
71800;SDS011;59647;55.838;37.292;2023-04-25T05:28:07;14.25;;;5.78;;
71800;SDS011;59647;55.838;37.292;2023-04-25T05:30:43;11.57;;;5.05;;
71800;SDS011;59647;55.838;37.292;2023-04-25T05:33:18;14.23;;;4.93;;
71800;SDS011;59647;55.838;37.292;2023-04-25T05:35:46;14.90;;;4.97;;
71800;SDS011;59647;55.838;37.292;2023-04-25T05:38:13;19.15;;;5.35;;
71800;SDS011;59647;55.838;37.292;2023-04-25T05:40:57;15.00;;;4.40;;
71800;SDS011;59647;55.838;37.292;2023-04-25T05:43:53;19.73;;;4.78;;
71800;SDS011;59647;55.838;37.292;2023-04-25T05:46:23;17.25;;;5.10;;
71800;SDS011;59647;55.838;37.292;2023-04-25T05:49:24;10.48;;;3.90;;
71800;SDS011;59647;55.838;37.292;2023-04-25T05:52:09;10.85;;;5.10;;
71800;SDS011;59647;55.838;37.292;2023-04-25T05:54:46;20.38;;;6.38;;
71800;SDS011;59647;55.838;37.292;2023-04-25T05:57:25;11.07;;;5.38;;
71800;SDS011;59647;55.838;37.292;2023-04-25T05:59:54;17.13;;;4.82;;
71800;SDS011;59647;55.838;37.292;2023-04-25T06:02:21;18.20;;;5.55;;
71800;SDS011;59647;55.838;37.292;2023-04-25T06:04:49;17.98;;;5.88;;
71800;SDS011;59647;55.838;37.292;2023-04-25T06:07:16;13.05;;;5.03;;
71800;SDS011;59647;55.838;37.292;2023-04-25T06:09:43;13.25;;;5.63;;
71800;SDS011;59647;55.838;37.292;2023-04-25T06:12:09;17.67;;;5.50;;
71800;SDS011;59647;55.838;37.292;2023-04-25T06:14:35;14.75;;;5.50;;
71800;SDS011;59647;55.838;37.292;2023-04-25T06:17:02;10.85;;;5.18;;
71800;SDS011;59647;55.838;37.292;2023-04-25T06:19:32;15.07;;;5.13;;
71800;SDS011;59647;55.838;37.292;2023-04-25T06:21:58;16.25;;;5.80;;
71800;SDS011;59647;55.838;37.292;2023-04-25T06:24:25;19.60;;;6.45;;
71800;SDS011;59647;55.838;37.292;2023-04-25T06:26:51;15.05;;;5.05;;
71800;SDS011;59647;55.838;37.292;2023-04-25T06:29:18;15.88;;;5.35;;
71800;SDS011;59647;55.838;37.292;2023-04-25T06:31:44;15.30;;;5.63;;
71800;SDS011;59647;55.838;37.292;2023-04-25T06:34:10;13.32;;;5.05;;
71800;SDS011;59647;55.838;37.292;2023-04-25T06:36:39;11.05;;;4.50;;
71800;SDS011;59647;55.838;37.292;2023-04-25T06:39:08;25.17;;;5.28;;
71800;SDS011;59647;55.838;37.292;2023-04-25T06:41:34;14.50;;;5.50;;
71800;SDS011;59647;55.838;37.292;2023-04-25T06:44:04;11.30;;;5.55;;
71800;SDS011;59647;55.838;37.292;2023-04-25T06:46:39;16.42;;;5.35;;
71800;SDS011;59647;55.838;37.292;2023-04-25T06:49:04;15.23;;;5.28;;
71800;SDS011;59647;55.838;37.292;2023-04-25T06:51:31;11.40;;;4.47;;
71800;SDS011;59647;55.838;37.292;2023-04-25T06:53:57;17.90;;;6.03;;
71800;SDS011;59647;55.838;37.292;2023-04-25T06:56:36;12.32;;;4.85;;
71800;SDS011;59647;55.838;37.292;2023-04-25T06:59:13;20.05;;;5.35;;
71800;SDS011;59647;55.838;37.292;2023-04-25T07:01:40;15.57;;;4.30;;
71800;SDS011;59647;55.838;37.292;2023-04-25T07:04:14;8.23;;;4.13;;
71800;SDS011;59647;55.838;37.292;2023-04-25T07:06:45;15.40;;;3.90;;
71800;SDS011;59647;55.838;37.292;2023-04-25T07:09:15;16.27;;;4.50;;
71800;SDS011;59647;55.838;37.292;2023-04-25T07:11:45;10.95;;;4.70;;
71800;SDS011;59647;55.838;37.292;2023-04-25T07:14:11;20.98;;;4.20;;
71800;SDS011;59647;55.838;37.292;2023-04-25T07:16:37;11.93;;;3.72;;
71800;SDS011;59647;55.838;37.292;2023-04-25T07:19:03;8.60;;;3.95;;
71800;SDS011;59647;55.838;37.292;2023-04-25T07:21:29;10.20;;;3.53;;
71800;SDS011;59647;55.838;37.292;2023-04-25T07:23:58;11.68;;;3.88;;
71800;SDS011;59647;55.838;37.292;2023-04-25T07:26:30;12.32;;;4.13;;
71800;SDS011;59647;55.838;37.292;2023-04-25T07:29:16;8.15;;;3.03;;
71800;SDS011;59647;55.838;37.292;2023-04-25T07:31:42;7.00;;;3.20;;
71800;SDS011;59647;55.838;37.292;2023-04-25T07:34:08;10.25;;;3.25;;
71800;SDS011;59647;55.838;37.292;2023-04-25T07:36:36;16.58;;;3.47;;
71800;SDS011;59647;55.838;37.292;2023-04-25T07:39:02;9.10;;;3.50;;
71800;SDS011;59647;55.838;37.292;2023-04-25T07:41:28;12.05;;;3.63;;
71800;SDS011;59647;55.838;37.292;2023-04-25T07:43:54;7.18;;;3.17;;
71800;SDS011;59647;55.838;37.292;2023-04-25T07:46:21;10.43;;;3.97;;
71800;SDS011;59647;55.838;37.292;2023-04-25T07:48:46;9.80;;;2.70;;
71800;SDS011;59647;55.838;37.292;2023-04-25T07:51:13;26.25;;;3.83;;
71800;SDS011;59647;55.838;37.292;2023-04-25T07:53:39;9.82;;;3.22;;
71800;SDS011;59647;55.838;37.292;2023-04-25T07:56:11;13.07;;;3.67;;
71800;SDS011;59647;55.838;37.292;2023-04-25T07:58:39;9.13;;;4.00;;
71800;SDS011;59647;55.838;37.292;2023-04-25T08:01:08;13.85;;;3.75;;
71800;SDS011;59647;55.838;37.292;2023-04-25T08:03:44;11.88;;;4.55;;
71800;SDS011;59647;55.838;37.292;2023-04-25T08:06:23;13.68;;;3.63;;
71800;SDS011;59647;55.838;37.292;2023-04-25T08:09:13;8.35;;;3.97;;
71800;SDS011;59647;55.838;37.292;2023-04-25T08:11:41;13.90;;;4.22;;
71800;SDS011;59647;55.838;37.292;2023-04-25T08:14:10;18.10;;;5.05;;
71800;SDS011;59647;55.838;37.292;2023-04-25T08:16:37;9.48;;;4.22;;
71800;SDS011;59647;55.838;37.292;2023-04-25T08:19:04;14.50;;;4.45;;
71800;SDS011;59647;55.838;37.292;2023-04-25T08:21:30;10.73;;;4.25;;
71800;SDS011;59647;55.838;37.292;2023-04-25T08:23:59;13.00;;;3.80;;
71800;SDS011;59647;55.838;37.292;2023-04-25T08:26:29;10.88;;;4.30;;
71800;SDS011;59647;55.838;37.292;2023-04-25T08:29:04;6.90;;;3.40;;
71800;SDS011;59647;55.838;37.292;2023-04-25T08:31:31;12.15;;;4.10;;
71800;SDS011;59647;55.838;37.292;2023-04-25T08:34:00;8.75;;;4.43;;
71800;SDS011;59647;55.838;37.292;2023-04-25T08:36:31;20.10;;;4.97;;
71800;SDS011;59647;55.838;37.292;2023-04-25T08:38:58;10.05;;;3.70;;
71800;SDS011;59647;55.838;37.292;2023-04-25T08:41:24;10.85;;;4.18;;
71800;SDS011;59647;55.838;37.292;2023-04-25T08:43:51;12.30;;;4.25;;
71800;SDS011;59647;55.838;37.292;2023-04-25T08:46:19;10.90;;;4.00;;
71800;SDS011;59647;55.838;37.292;2023-04-25T08:49:00;12.57;;;4.45;;
71800;SDS011;59647;55.838;37.292;2023-04-25T08:51:29;15.80;;;4.00;;
71800;SDS011;59647;55.838;37.292;2023-04-25T08:54:16;7.45;;;3.65;;
71800;SDS011;59647;55.838;37.292;2023-04-25T08:56:47;17.98;;;4.47;;
71800;SDS011;59647;55.838;37.292;2023-04-25T08:59:13;13.68;;;4.25;;
71800;SDS011;59647;55.838;37.292;2023-04-25T09:01:41;15.10;;;3.88;;
71800;SDS011;59647;55.838;37.292;2023-04-25T09:04:07;9.07;;;3.60;;
71800;SDS011;59647;55.838;37.292;2023-04-25T09:06:33;13.98;;;4.03;;
71800;SDS011;59647;55.838;37.292;2023-04-25T09:09:05;12.65;;;3.88;;
71800;SDS011;59647;55.838;37.292;2023-04-25T09:11:33;16.73;;;4.72;;
71800;SDS011;59647;55.838;37.292;2023-04-25T09:14:15;16.17;;;4.50;;
71800;SDS011;59647;55.838;37.292;2023-04-25T09:17:11;13.02;;;4.22;;
71800;SDS011;59647;55.838;37.292;2023-04-25T09:19:40;13.40;;;3.80;;
71800;SDS011;59647;55.838;37.292;2023-04-25T09:22:14;10.88;;;4.28;;
71800;SDS011;59647;55.838;37.292;2023-04-25T09:24:44;14.93;;;4.75;;
71800;SDS011;59647;55.838;37.292;2023-04-25T09:27:19;19.23;;;4.60;;
71800;SDS011;59647;55.838;37.292;2023-04-25T09:29:57;46.08;;;6.85;;
71800;SDS011;59647;55.838;37.292;2023-04-25T09:32:31;17.67;;;4.68;;
71800;SDS011;59647;55.838;37.292;2023-04-25T09:34:57;10.85;;;4.32;;
71800;SDS011;59647;55.838;37.292;2023-04-25T09:37:29;23.10;;;4.25;;
71800;SDS011;59647;55.838;37.292;2023-04-25T09:40:05;13.02;;;4.15;;
71800;SDS011;59647;55.838;37.292;2023-04-25T09:42:46;18.13;;;4.70;;
71800;SDS011;59647;55.838;37.292;2023-04-25T09:45:12;12.40;;;3.30;;
71800;SDS011;59647;55.838;37.292;2023-04-25T09:47:42;6.38;;;3.25;;
71800;SDS011;59647;55.838;37.292;2023-04-25T09:50:14;12.27;;;3.67;;
71800;SDS011;59647;55.838;37.292;2023-04-25T09:52:44;16.23;;;3.85;;
71800;SDS011;59647;55.838;37.292;2023-04-25T09:55:20;13.35;;;3.90;;
71800;SDS011;59647;55.838;37.292;2023-04-25T09:57:46;17.33;;;4.00;;
71800;SDS011;59647;55.838;37.292;2023-04-25T10:00:17;11.32;;;4.00;;
71800;SDS011;59647;55.838;37.292;2023-04-25T10:02:45;12.80;;;4.00;;
71800;SDS011;59647;55.838;37.292;2023-04-25T10:05:36;8.77;;;3.05;;
71800;SDS011;59647;55.838;37.292;2023-04-25T10:08:03;7.55;;;2.97;;
71800;SDS011;59647;55.838;37.292;2023-04-25T10:10:30;9.05;;;2.90;;
71800;SDS011;59647;55.838;37.292;2023-04-25T10:13:05;12.02;;;3.42;;
71800;SDS011;59647;55.838;37.292;2023-04-25T10:15:32;11.30;;;3.08;;
71800;SDS011;59647;55.838;37.292;2023-04-25T10:18:00;7.32;;;2.70;;
71800;SDS011;59647;55.838;37.292;2023-04-25T10:20:28;5.07;;;1.95;;
71800;SDS011;59647;55.838;37.292;2023-04-25T10:22:55;15.50;;;2.78;;
71800;SDS011;59647;55.838;37.292;2023-04-25T10:27:54;9.98;;;3.13;;
71800;SDS011;59647;55.838;37.292;2023-04-25T10:30:20;5.10;;;2.47;;
71800;SDS011;59647;55.838;37.292;2023-04-25T10:32:46;7.55;;;2.70;;
71800;SDS011;59647;55.838;37.292;2023-04-25T10:35:14;11.75;;;2.90;;
71800;SDS011;59647;55.838;37.292;2023-04-25T10:40:31;7.78;;;2.97;;
71800;SDS011;59647;55.838;37.292;2023-04-25T10:45:56;8.63;;;3.53;;
71800;SDS011;59647;55.838;37.292;2023-04-25T10:48:25;7.45;;;2.95;;
71800;SDS011;59647;55.838;37.292;2023-04-25T10:51:06;9.75;;;4.32;;
71800;SDS011;59647;55.838;37.292;2023-04-25T10:53:46;11.70;;;3.97;;
71800;SDS011;59647;55.838;37.292;2023-04-25T10:56:38;13.63;;;3.88;;
71800;SDS011;59647;55.838;37.292;2023-04-25T10:59:10;10.15;;;4.38;;
71800;SDS011;59647;55.838;37.292;2023-04-25T11:01:44;10.95;;;4.28;;
71800;SDS011;59647;55.838;37.292;2023-04-25T11:04:22;8.15;;;3.85;;
71800;SDS011;59647;55.838;37.292;2023-04-25T11:09:28;13.57;;;4.85;;
71800;SDS011;59647;55.838;37.292;2023-04-25T11:11:58;13.80;;;4.13;;
71800;SDS011;59647;55.838;37.292;2023-04-25T11:14:25;9.07;;;4.00;;
71800;SDS011;59647;55.838;37.292;2023-04-25T11:16:56;15.73;;;3.95;;
71800;SDS011;59647;55.838;37.292;2023-04-25T11:19:23;9.60;;;3.75;;
71800;SDS011;59647;55.838;37.292;2023-04-25T11:21:50;9.80;;;3.47;;
71800;SDS011;59647;55.838;37.292;2023-04-25T11:24:16;10.32;;;3.45;;
71800;SDS011;59647;55.838;37.292;2023-04-25T11:26:43;8.98;;;3.58;;
71800;SDS011;59647;55.838;37.292;2023-04-25T11:29:12;8.55;;;3.30;;
71800;SDS011;59647;55.838;37.292;2023-04-25T11:31:39;8.25;;;3.42;;
71800;SDS011;59647;55.838;37.292;2023-04-25T11:34:10;8.90;;;4.00;;
71800;SDS011;59647;55.838;37.292;2023-04-25T11:36:37;7.30;;;2.72;;
71800;SDS011;59647;55.838;37.292;2023-04-25T11:39:04;18.67;;;4.47;;
71800;SDS011;59647;55.838;37.292;2023-04-25T11:41:31;14.23;;;3.33;;
71800;SDS011;59647;55.838;37.292;2023-04-25T11:43:57;6.80;;;2.72;;
71800;SDS011;59647;55.838;37.292;2023-04-25T11:46:23;9.30;;;3.40;;
71800;SDS011;59647;55.838;37.292;2023-04-25T11:48:49;5.55;;;2.05;;
71800;SDS011;59647;55.838;37.292;2023-04-25T11:51:15;5.57;;;2.35;;
71800;SDS011;59647;55.838;37.292;2023-04-25T11:53:41;8.25;;;2.60;;
71800;SDS011;59647;55.838;37.292;2023-04-25T11:56:10;5.07;;;2.78;;
71800;SDS011;59647;55.838;37.292;2023-04-25T11:58:58;19.40;;;2.92;;
71800;SDS011;59647;55.838;37.292;2023-04-25T12:01:27;6.30;;;2.72;;
71800;SDS011;59647;55.838;37.292;2023-04-25T12:03:57;8.32;;;2.88;;
71800;SDS011;59647;55.838;37.292;2023-04-25T12:06:27;8.27;;;2.97;;
71800;SDS011;59647;55.838;37.292;2023-04-25T12:09:00;5.65;;;2.50;;
71800;SDS011;59647;55.838;37.292;2023-04-25T12:11:30;11.70;;;3.88;;
71800;SDS011;59647;55.838;37.292;2023-04-25T12:14:03;12.45;;;3.50;;
71800;SDS011;59647;55.838;37.292;2023-04-25T12:16:39;7.47;;;3.03;;
71800;SDS011;59647;55.838;37.292;2023-04-25T12:19:06;11.18;;;2.45;;
71800;SDS011;59647;55.838;37.292;2023-04-25T12:21:32;6.60;;;2.33;;
71800;SDS011;59647;55.838;37.292;2023-04-25T12:24:14;6.57;;;2.42;;
71800;SDS011;59647;55.838;37.292;2023-04-25T12:26:49;6.93;;;2.47;;
71800;SDS011;59647;55.838;37.292;2023-04-25T12:29:23;10.23;;;2.17;;
71800;SDS011;59647;55.838;37.292;2023-04-25T12:31:50;17.35;;;3.72;;
71800;SDS011;59647;55.838;37.292;2023-04-25T12:34:18;9.98;;;2.85;;
71800;SDS011;59647;55.838;37.292;2023-04-25T12:36:44;5.38;;;2.55;;
71800;SDS011;59647;55.838;37.292;2023-04-25T12:39:15;5.13;;;2.30;;
71800;SDS011;59647;55.838;37.292;2023-04-25T12:41:45;8.18;;;2.25;;
71800;SDS011;59647;55.838;37.292;2023-04-25T12:44:12;7.55;;;2.40;;
71800;SDS011;59647;55.838;37.292;2023-04-25T12:46:39;7.88;;;2.63;;
71800;SDS011;59647;55.838;37.292;2023-04-25T12:49:06;9.90;;;2.72;;
71800;SDS011;59647;55.838;37.292;2023-04-25T12:51:34;4.50;;;2.45;;
71800;SDS011;59647;55.838;37.292;2023-04-25T12:54:00;8.00;;;2.50;;
71800;SDS011;59647;55.838;37.292;2023-04-25T12:56:27;11.45;;;3.03;;
71800;SDS011;59647;55.838;37.292;2023-04-25T12:58:54;7.63;;;2.70;;
71800;SDS011;59647;55.838;37.292;2023-04-25T13:01:20;8.98;;;2.33;;
71800;SDS011;59647;55.838;37.292;2023-04-25T13:03:47;12.73;;;3.38;;
71800;SDS011;59647;55.838;37.292;2023-04-25T13:06:16;8.15;;;2.95;;
71800;SDS011;59647;55.838;37.292;2023-04-25T13:08:43;9.57;;;2.50;;
71800;SDS011;59647;55.838;37.292;2023-04-25T13:11:09;10.55;;;2.63;;
71800;SDS011;59647;55.838;37.292;2023-04-25T13:13:37;9.35;;;2.88;;
71800;SDS011;59647;55.838;37.292;2023-04-25T13:16:03;10.40;;;2.45;;
71800;SDS011;59647;55.838;37.292;2023-04-25T13:18:30;8.25;;;2.35;;
71800;SDS011;59647;55.838;37.292;2023-04-25T13:20:56;14.40;;;2.95;;
71800;SDS011;59647;55.838;37.292;2023-04-25T13:23:26;13.93;;;3.13;;
71800;SDS011;59647;55.838;37.292;2023-04-25T13:25:54;4.50;;;1.95;;
71800;SDS011;59647;55.838;37.292;2023-04-25T13:28:26;6.05;;;2.80;;
71800;SDS011;59647;55.838;37.292;2023-04-25T13:30:53;8.43;;;2.60;;
71800;SDS011;59647;55.838;37.292;2023-04-25T13:33:19;8.88;;;2.45;;
71800;SDS011;59647;55.838;37.292;2023-04-25T13:35:46;15.80;;;3.45;;
71800;SDS011;59647;55.838;37.292;2023-04-25T13:38:20;7.70;;;2.60;;
71800;SDS011;59647;55.838;37.292;2023-04-25T13:40:48;4.25;;;2.28;;
71800;SDS011;59647;55.838;37.292;2023-04-25T13:43:15;9.82;;;2.60;;
71800;SDS011;59647;55.838;37.292;2023-04-25T13:45:41;17.42;;;3.33;;
71800;SDS011;59647;55.838;37.292;2023-04-25T13:48:07;9.90;;;3.05;;
71800;SDS011;59647;55.838;37.292;2023-04-25T13:50:33;8.02;;;3.00;;
71800;SDS011;59647;55.838;37.292;2023-04-25T13:52:59;5.75;;;2.33;;
71800;SDS011;59647;55.838;37.292;2023-04-25T13:55:25;8.57;;;3.00;;
71800;SDS011;59647;55.838;37.292;2023-04-25T13:57:51;11.25;;;2.95;;
71800;SDS011;59647;55.838;37.292;2023-04-25T14:00:17;7.07;;;2.30;;
71800;SDS011;59647;55.838;37.292;2023-04-25T14:02:43;8.90;;;2.63;;
71800;SDS011;59647;55.838;37.292;2023-04-25T14:05:09;6.10;;;2.55;;
71800;SDS011;59647;55.838;37.292;2023-04-25T14:07:35;10.27;;;2.60;;
71800;SDS011;59647;55.838;37.292;2023-04-25T14:10:02;11.07;;;2.47;;
71800;SDS011;59647;55.838;37.292;2023-04-25T14:12:33;8.15;;;2.53;;
71800;SDS011;59647;55.838;37.292;2023-04-25T14:14:59;8.02;;;2.35;;
71800;SDS011;59647;55.838;37.292;2023-04-25T14:17:25;10.10;;;2.60;;
71800;SDS011;59647;55.838;37.292;2023-04-25T14:19:51;9.57;;;2.95;;
71800;SDS011;59647;55.838;37.292;2023-04-25T14:22:17;7.40;;;2.60;;
71800;SDS011;59647;55.838;37.292;2023-04-25T14:24:44;7.43;;;2.58;;
71800;SDS011;59647;55.838;37.292;2023-04-25T14:27:10;9.80;;;2.85;;
71800;SDS011;59647;55.838;37.292;2023-04-25T14:29:37;10.02;;;2.70;;
71800;SDS011;59647;55.838;37.292;2023-04-25T14:32:03;8.30;;;2.90;;
71800;SDS011;59647;55.838;37.292;2023-04-25T14:34:30;9.77;;;2.33;;
71800;SDS011;59647;55.838;37.292;2023-04-25T14:36:56;5.53;;;2.33;;
71800;SDS011;59647;55.838;37.292;2023-04-25T14:39:22;10.05;;;2.90;;
71800;SDS011;59647;55.838;37.292;2023-04-25T14:41:48;10.30;;;3.22;;
71800;SDS011;59647;55.838;37.292;2023-04-25T14:44:14;7.20;;;2.60;;
71800;SDS011;59647;55.838;37.292;2023-04-25T14:46:40;11.63;;;3.08;;
71800;SDS011;59647;55.838;37.292;2023-04-25T14:49:08;13.13;;;3.05;;
71800;SDS011;59647;55.838;37.292;2023-04-25T14:51:34;13.52;;;2.67;;
71800;SDS011;59647;55.838;37.292;2023-04-25T14:54:00;10.43;;;2.83;;